sensor_id;sensor_type;location;lat;lon;timestamp;temperature;humidity
76102;SHT30;64830;46.910;6.354;2022-11-10T00:00:29;10.66;89.83
76102;SHT30;64830;46.910;6.354;2022-11-10T00:03:00;10.69;90.08
76102;SHT30;64830;46.910;6.354;2022-11-10T00:05:25;10.69;89.93
76102;SHT30;64830;46.910;6.354;2022-11-10T00:07:51;10.70;89.91
76102;SHT30;64830;46.910;6.354;2022-11-10T00:10:16;10.70;89.99
76102;SHT30;64830;46.910;6.354;2022-11-10T00:12:41;10.72;89.93
76102;SHT30;64830;46.910;6.354;2022-11-10T00:15:08;10.72;89.85
76102;SHT30;64830;46.910;6.354;2022-11-10T00:17:52;10.70;89.73
76102;SHT30;64830;46.910;6.354;2022-11-10T00:20:18;10.70;89.75
76102;SHT30;64830;46.910;6.354;2022-11-10T00:22:43;10.66;89.72
76102;SHT30;64830;46.910;6.354;2022-11-10T00:25:08;10.63;89.77
76102;SHT30;64830;46.910;6.354;2022-11-10T00:27:34;10.60;89.93
76102;SHT30;64830;46.910;6.354;2022-11-10T00:30:00;10.62;89.95
76102;SHT30;64830;46.910;6.354;2022-11-10T00:32:25;10.62;89.93
76102;SHT30;64830;46.910;6.354;2022-11-10T00:34:51;10.59;89.87
76102;SHT30;64830;46.910;6.354;2022-11-10T00:37:17;10.63;89.95
76102;SHT30;64830;46.910;6.354;2022-11-10T00:39:42;10.59;89.88
76102;SHT30;64830;46.910;6.354;2022-11-10T00:42:08;10.60;89.91
76102;SHT30;64830;46.910;6.354;2022-11-10T00:44:33;10.60;89.93
76102;SHT30;64830;46.910;6.354;2022-11-10T00:46:59;10.60;89.87
76102;SHT30;64830;46.910;6.354;2022-11-10T00:49:24;10.63;89.85
76102;SHT30;64830;46.910;6.354;2022-11-10T00:51:50;10.62;89.95
76102;SHT30;64830;46.910;6.354;2022-11-10T00:54:15;10.63;89.86
76102;SHT30;64830;46.910;6.354;2022-11-10T00:56:41;10.67;89.95
76102;SHT30;64830;46.910;6.354;2022-11-10T00:59:06;10.63;89.84
76102;SHT30;64830;46.910;6.354;2022-11-10T01:01:32;10.65;89.90
76102;SHT30;64830;46.910;6.354;2022-11-10T01:03:57;10.63;89.85
76102;SHT30;64830;46.910;6.354;2022-11-10T01:06:22;10.66;89.81
76102;SHT30;64830;46.910;6.354;2022-11-10T01:08:48;10.63;89.90
76102;SHT30;64830;46.910;6.354;2022-11-10T01:11:17;10.63;89.91
76102;SHT30;64830;46.910;6.354;2022-11-10T01:13:44;10.66;89.96
76102;SHT30;64830;46.910;6.354;2022-11-10T01:16:16;10.65;89.90
76102;SHT30;64830;46.910;6.354;2022-11-10T01:18:43;10.60;89.98
76102;SHT30;64830;46.910;6.354;2022-11-10T01:21:09;10.60;90.07
76102;SHT30;64830;46.910;6.354;2022-11-10T01:23:35;10.60;89.97
76102;SHT30;64830;46.910;6.354;2022-11-10T01:26:03;10.60;89.90
76102;SHT30;64830;46.910;6.354;2022-11-10T01:28:30;10.63;89.79
76102;SHT30;64830;46.910;6.354;2022-11-10T01:31:01;10.59;89.88
76102;SHT30;64830;46.910;6.354;2022-11-10T01:33:27;10.59;89.93
76102;SHT30;64830;46.910;6.354;2022-11-10T01:35:54;10.56;89.91
76102;SHT30;64830;46.910;6.354;2022-11-10T01:38:19;10.59;90.03
76102;SHT30;64830;46.910;6.354;2022-11-10T01:40:45;10.59;89.85
76102;SHT30;64830;46.910;6.354;2022-11-10T01:43:11;10.60;89.92
76102;SHT30;64830;46.910;6.354;2022-11-10T01:45:47;10.63;89.92
76102;SHT30;64830;46.910;6.354;2022-11-10T01:48:28;10.59;89.80
76102;SHT30;64830;46.910;6.354;2022-11-10T01:50:58;10.55;89.94
76102;SHT30;64830;46.910;6.354;2022-11-10T01:53:26;10.55;89.88
76102;SHT30;64830;46.910;6.354;2022-11-10T01:55:54;10.50;89.75
76102;SHT30;64830;46.910;6.354;2022-11-10T01:58:25;10.45;89.97
76102;SHT30;64830;46.910;6.354;2022-11-10T02:00:52;10.38;89.87
76102;SHT30;64830;46.910;6.354;2022-11-10T02:03:38;10.36;89.95
76102;SHT30;64830;46.910;6.354;2022-11-10T02:06:06;10.38;89.88
76102;SHT30;64830;46.910;6.354;2022-11-10T02:08:32;10.34;89.89
76102;SHT30;64830;46.910;6.354;2022-11-10T02:10:58;10.32;90.18
76102;SHT30;64830;46.910;6.354;2022-11-10T02:13:24;10.29;90.15
76102;SHT30;64830;46.910;6.354;2022-11-10T02:15:50;10.29;90.25
76102;SHT30;64830;46.910;6.354;2022-11-10T02:18:15;10.29;90.20
76102;SHT30;64830;46.910;6.354;2022-11-10T02:20:45;10.27;90.28
76102;SHT30;64830;46.910;6.354;2022-11-10T02:23:13;10.31;90.32
76102;SHT30;64830;46.910;6.354;2022-11-10T02:25:38;10.29;90.19
76102;SHT30;64830;46.910;6.354;2022-11-10T02:28:04;10.28;90.24
76102;SHT30;64830;46.910;6.354;2022-11-10T02:30:29;10.28;89.99
76102;SHT30;64830;46.910;6.354;2022-11-10T02:32:54;10.31;90.12
76102;SHT30;64830;46.910;6.354;2022-11-10T02:35:20;10.28;90.05
76102;SHT30;64830;46.910;6.354;2022-11-10T02:37:45;10.31;90.02
76102;SHT30;64830;46.910;6.354;2022-11-10T02:40:10;10.31;89.93
76102;SHT30;64830;46.910;6.354;2022-11-10T02:42:36;10.28;90.02
76102;SHT30;64830;46.910;6.354;2022-11-10T02:45:01;10.25;89.61
76102;SHT30;64830;46.910;6.354;2022-11-10T02:47:27;10.27;89.93
76102;SHT30;64830;46.910;6.354;2022-11-10T02:49:52;10.25;89.74
76102;SHT30;64830;46.910;6.354;2022-11-10T02:52:17;10.21;89.90
76102;SHT30;64830;46.910;6.354;2022-11-10T02:54:43;10.17;89.56
76102;SHT30;64830;46.910;6.354;2022-11-10T02:57:08;10.12;89.68
76102;SHT30;64830;46.910;6.354;2022-11-10T02:59:33;10.12;89.63
76102;SHT30;64830;46.910;6.354;2022-11-10T03:02:00;10.08;89.26
76102;SHT30;64830;46.910;6.354;2022-11-10T03:04:25;10.05;89.46
76102;SHT30;64830;46.910;6.354;2022-11-10T03:06:51;10.02;89.38
76102;SHT30;64830;46.910;6.354;2022-11-10T03:09:16;9.98;89.45
76102;SHT30;64830;46.910;6.354;2022-11-10T03:11:42;10.00;89.35
76102;SHT30;64830;46.910;6.354;2022-11-10T03:14:07;9.95;89.35
76102;SHT30;64830;46.910;6.354;2022-11-10T03:16:32;9.91;89.22
76102;SHT30;64830;46.910;6.354;2022-11-10T03:18:58;9.93;89.25
76102;SHT30;64830;46.910;6.354;2022-11-10T03:21:23;9.90;89.08
76102;SHT30;64830;46.910;6.354;2022-11-10T03:23:48;9.90;89.16
76102;SHT30;64830;46.910;6.354;2022-11-10T03:26:14;9.87;89.31
76102;SHT30;64830;46.910;6.354;2022-11-10T03:28:39;9.82;89.28
76102;SHT30;64830;46.910;6.354;2022-11-10T03:31:05;9.82;89.36
76102;SHT30;64830;46.910;6.354;2022-11-10T03:33:30;9.79;89.48
76102;SHT30;64830;46.910;6.354;2022-11-10T03:35:55;9.77;89.52
76102;SHT30;64830;46.910;6.354;2022-11-10T03:38:21;9.76;89.44
76102;SHT30;64830;46.910;6.354;2022-11-10T03:40:49;9.74;89.42
76102;SHT30;64830;46.910;6.354;2022-11-10T03:43:14;9.72;89.41
76102;SHT30;64830;46.910;6.354;2022-11-10T03:45:43;9.73;89.34
76102;SHT30;64830;46.910;6.354;2022-11-10T03:48:08;9.73;89.27
76102;SHT30;64830;46.910;6.354;2022-11-10T03:50:34;9.72;89.30
76102;SHT30;64830;46.910;6.354;2022-11-10T03:52:59;9.73;89.05
76102;SHT30;64830;46.910;6.354;2022-11-10T03:55:24;9.67;89.23
76102;SHT30;64830;46.910;6.354;2022-11-10T03:57:50;9.65;89.28
76102;SHT30;64830;46.910;6.354;2022-11-10T04:00:15;9.63;89.34
76102;SHT30;64830;46.910;6.354;2022-11-10T04:02:41;9.63;89.33
76102;SHT30;64830;46.910;6.354;2022-11-10T04:05:07;9.63;89.54
76102;SHT30;64830;46.910;6.354;2022-11-10T04:08:00;9.63;89.40
76102;SHT30;64830;46.910;6.354;2022-11-10T04:10:45;9.63;89.30
76102;SHT30;64830;46.910;6.354;2022-11-10T04:13:11;9.59;89.05
76102;SHT30;64830;46.910;6.354;2022-11-10T04:15:54;9.55;88.81
76102;SHT30;64830;46.910;6.354;2022-11-10T04:18:20;9.49;88.93
76102;SHT30;64830;46.910;6.354;2022-11-10T04:20:47;9.43;88.87
76102;SHT30;64830;46.910;6.354;2022-11-10T04:23:12;9.39;88.71
76102;SHT30;64830;46.910;6.354;2022-11-10T04:26:02;9.35;88.68
76102;SHT30;64830;46.910;6.354;2022-11-10T04:28:49;9.31;88.65
76102;SHT30;64830;46.910;6.354;2022-11-10T04:31:16;9.27;88.62
76102;SHT30;64830;46.910;6.354;2022-11-10T04:33:43;9.25;88.57
76102;SHT30;64830;46.910;6.354;2022-11-10T04:36:10;9.24;88.61
76102;SHT30;64830;46.910;6.354;2022-11-10T04:38:36;9.20;88.75
76102;SHT30;64830;46.910;6.354;2022-11-10T04:41:03;9.17;88.61
76102;SHT30;64830;46.910;6.354;2022-11-10T04:43:28;9.14;88.58
76102;SHT30;64830;46.910;6.354;2022-11-10T04:45:54;9.08;88.43
76102;SHT30;64830;46.910;6.354;2022-11-10T04:48:20;9.04;88.40
76102;SHT30;64830;46.910;6.354;2022-11-10T04:50:45;9.01;88.57
76102;SHT30;64830;46.910;6.354;2022-11-10T04:53:11;8.99;88.58
76102;SHT30;64830;46.910;6.354;2022-11-10T04:55:41;8.99;88.73
76102;SHT30;64830;46.910;6.354;2022-11-10T04:58:07;8.99;88.91
76102;SHT30;64830;46.910;6.354;2022-11-10T05:00:33;9.00;88.95
76102;SHT30;64830;46.910;6.354;2022-11-10T05:02:59;8.99;89.02
76102;SHT30;64830;46.910;6.354;2022-11-10T05:05:25;8.96;89.07
76102;SHT30;64830;46.910;6.354;2022-11-10T05:07:50;8.97;89.10
76102;SHT30;64830;46.910;6.354;2022-11-10T05:10:16;8.97;89.04
76102;SHT30;64830;46.910;6.354;2022-11-10T05:12:41;9.03;89.18
76102;SHT30;64830;46.910;6.354;2022-11-10T05:15:07;9.05;89.35
76102;SHT30;64830;46.910;6.354;2022-11-10T05:17:33;9.07;89.38
76102;SHT30;64830;46.910;6.354;2022-11-10T05:19:58;9.08;89.36
76102;SHT30;64830;46.910;6.354;2022-11-10T05:22:24;9.07;89.41
76102;SHT30;64830;46.910;6.354;2022-11-10T05:24:49;9.11;89.54
76102;SHT30;64830;46.910;6.354;2022-11-10T05:27:15;9.14;89.37
76102;SHT30;64830;46.910;6.354;2022-11-10T05:29:40;9.12;89.37
76102;SHT30;64830;46.910;6.354;2022-11-10T05:32:05;9.15;89.52
76102;SHT30;64830;46.910;6.354;2022-11-10T05:34:31;9.18;89.41
76102;SHT30;64830;46.910;6.354;2022-11-10T05:36:56;9.18;89.50
76102;SHT30;64830;46.910;6.354;2022-11-10T05:39:22;9.21;89.49
76102;SHT30;64830;46.910;6.354;2022-11-10T05:41:47;9.18;89.51
76102;SHT30;64830;46.910;6.354;2022-11-10T05:44:12;9.18;89.40
76102;SHT30;64830;46.910;6.354;2022-11-10T05:46:38;9.21;89.24
76102;SHT30;64830;46.910;6.354;2022-11-10T05:49:03;9.21;89.13
76102;SHT30;64830;46.910;6.354;2022-11-10T05:51:29;9.21;89.07
76102;SHT30;64830;46.910;6.354;2022-11-10T05:53:54;9.21;89.20
76102;SHT30;64830;46.910;6.354;2022-11-10T05:56:19;9.20;89.09
76102;SHT30;64830;46.910;6.354;2022-11-10T05:58:45;9.22;89.08
76102;SHT30;64830;46.910;6.354;2022-11-10T06:01:10;9.20;88.93
76102;SHT30;64830;46.910;6.354;2022-11-10T06:03:35;9.20;88.74
76102;SHT30;64830;46.910;6.354;2022-11-10T06:06:01;9.15;88.76
76102;SHT30;64830;46.910;6.354;2022-11-10T06:08:26;9.12;88.70
76102;SHT30;64830;46.910;6.354;2022-11-10T06:10:51;9.12;88.72
76102;SHT30;64830;46.910;6.354;2022-11-10T06:13:17;9.10;88.45
76102;SHT30;64830;46.910;6.354;2022-11-10T06:15:43;9.05;88.09
76102;SHT30;64830;46.910;6.354;2022-11-10T06:18:08;9.00;88.13
76102;SHT30;64830;46.910;6.354;2022-11-10T06:20:33;8.94;87.87
76102;SHT30;64830;46.910;6.354;2022-11-10T06:23:03;8.84;88.00
76102;SHT30;64830;46.910;6.354;2022-11-10T06:25:31;8.81;87.99
76102;SHT30;64830;46.910;6.354;2022-11-10T06:27:57;8.79;88.07
76102;SHT30;64830;46.910;6.354;2022-11-10T06:30:23;8.77;87.63
76102;SHT30;64830;46.910;6.354;2022-11-10T06:32:48;8.73;87.57
76102;SHT30;64830;46.910;6.354;2022-11-10T06:35:14;8.70;87.65
76102;SHT30;64830;46.910;6.354;2022-11-10T06:37:39;8.70;87.37
76102;SHT30;64830;46.910;6.354;2022-11-10T06:40:07;8.67;87.49
76102;SHT30;64830;46.910;6.354;2022-11-10T06:42:34;8.65;87.41
76102;SHT30;64830;46.910;6.354;2022-11-10T06:45:00;8.62;88.00
76102;SHT30;64830;46.910;6.354;2022-11-10T06:47:25;8.58;88.31
76102;SHT30;64830;46.910;6.354;2022-11-10T06:49:51;8.49;88.25
76102;SHT30;64830;46.910;6.354;2022-11-10T06:52:17;8.38;86.99
76102;SHT30;64830;46.910;6.354;2022-11-10T06:54:42;8.30;86.92
76102;SHT30;64830;46.910;6.354;2022-11-10T06:57:08;8.17;86.95
76102;SHT30;64830;46.910;6.354;2022-11-10T06:59:33;8.07;87.52
76102;SHT30;64830;46.910;6.354;2022-11-10T07:01:58;7.98;87.18
76102;SHT30;64830;46.910;6.354;2022-11-10T07:04:24;7.89;86.92
76102;SHT30;64830;46.910;6.354;2022-11-10T07:06:49;7.80;87.06
76102;SHT30;64830;46.910;6.354;2022-11-10T07:09:15;7.72;87.60
76102;SHT30;64830;46.910;6.354;2022-11-10T07:11:40;7.65;87.24
76102;SHT30;64830;46.910;6.354;2022-11-10T07:14:06;7.61;88.02
76102;SHT30;64830;46.910;6.354;2022-11-10T07:16:31;7.59;88.40
76102;SHT30;64830;46.910;6.354;2022-11-10T07:18:56;7.56;88.42
76102;SHT30;64830;46.910;6.354;2022-11-10T07:21:22;7.56;88.34
76102;SHT30;64830;46.910;6.354;2022-11-10T07:23:47;7.61;88.63
76102;SHT30;64830;46.910;6.354;2022-11-10T07:26:13;7.68;88.78
76102;SHT30;64830;46.910;6.354;2022-11-10T07:28:38;7.76;88.25
76102;SHT30;64830;46.910;6.354;2022-11-10T07:31:04;7.83;87.82
76102;SHT30;64830;46.910;6.354;2022-11-10T07:33:29;7.86;86.70
76102;SHT30;64830;46.910;6.354;2022-11-10T07:35:56;7.86;86.51
76102;SHT30;64830;46.910;6.354;2022-11-10T07:38:23;7.91;86.37
76102;SHT30;64830;46.910;6.354;2022-11-10T07:40:52;8.01;86.66
76102;SHT30;64830;46.910;6.354;2022-11-10T07:43:19;8.08;87.24
76102;SHT30;64830;46.910;6.354;2022-11-10T07:45:45;8.18;87.44
76102;SHT30;64830;46.910;6.354;2022-11-10T07:48:10;8.18;86.81
76102;SHT30;64830;46.910;6.354;2022-11-10T07:50:36;8.20;87.12
76102;SHT30;64830;46.910;6.354;2022-11-10T07:53:06;8.24;87.19
76102;SHT30;64830;46.910;6.354;2022-11-10T07:55:33;8.22;87.51
76102;SHT30;64830;46.910;6.354;2022-11-10T07:57:59;8.27;87.88
76102;SHT30;64830;46.910;6.354;2022-11-10T08:00:25;8.31;88.14
76102;SHT30;64830;46.910;6.354;2022-11-10T08:02:51;8.35;88.02
76102;SHT30;64830;46.910;6.354;2022-11-10T08:05:17;8.38;88.07
76102;SHT30;64830;46.910;6.354;2022-11-10T08:07:42;8.42;88.07
76102;SHT30;64830;46.910;6.354;2022-11-10T08:10:08;8.46;87.69
76102;SHT30;64830;46.910;6.354;2022-11-10T08:12:34;8.41;87.28
76102;SHT30;64830;46.910;6.354;2022-11-10T08:14:59;8.39;87.73
76102;SHT30;64830;46.910;6.354;2022-11-10T08:17:25;8.41;87.84
76102;SHT30;64830;46.910;6.354;2022-11-10T08:19:50;8.41;88.13
76102;SHT30;64830;46.910;6.354;2022-11-10T08:22:15;8.42;88.08
76102;SHT30;64830;46.910;6.354;2022-11-10T08:24:41;8.50;87.63
76102;SHT30;64830;46.910;6.354;2022-11-10T08:27:06;8.53;87.54
76102;SHT30;64830;46.910;6.354;2022-11-10T08:29:32;8.59;87.37
76102;SHT30;64830;46.910;6.354;2022-11-10T08:31:57;8.67;87.66
76102;SHT30;64830;46.910;6.354;2022-11-10T08:34:22;8.73;87.54
76102;SHT30;64830;46.910;6.354;2022-11-10T08:36:50;8.87;87.50
76102;SHT30;64830;46.910;6.354;2022-11-10T08:39:16;8.99;86.92
76102;SHT30;64830;46.910;6.354;2022-11-10T08:41:41;9.12;86.62
76102;SHT30;64830;46.910;6.354;2022-11-10T08:44:07;9.24;85.92
76102;SHT30;64830;46.910;6.354;2022-11-10T08:46:32;9.35;86.03
76102;SHT30;64830;46.910;6.354;2022-11-10T08:48:58;9.49;85.87
76102;SHT30;64830;46.910;6.354;2022-11-10T08:51:23;9.59;85.63
76102;SHT30;64830;46.910;6.354;2022-11-10T08:53:48;9.67;85.01
76102;SHT30;64830;46.910;6.354;2022-11-10T08:56:14;9.72;84.87
76102;SHT30;64830;46.910;6.354;2022-11-10T08:58:39;9.80;85.24
76102;SHT30;64830;46.910;6.354;2022-11-10T09:01:09;9.87;84.72
76102;SHT30;64830;46.910;6.354;2022-11-10T09:03:34;9.89;84.92
76102;SHT30;64830;46.910;6.354;2022-11-10T09:05:59;9.90;84.52
76102;SHT30;64830;46.910;6.354;2022-11-10T09:08:25;9.95;85.15
76102;SHT30;64830;46.910;6.354;2022-11-10T09:10:51;10.05;84.84
76102;SHT30;64830;46.910;6.354;2022-11-10T09:13:17;10.10;84.31
76102;SHT30;64830;46.910;6.354;2022-11-10T09:15:43;10.10;84.41
76102;SHT30;64830;46.910;6.354;2022-11-10T09:18:11;10.21;84.72
76102;SHT30;64830;46.910;6.354;2022-11-10T09:20:37;10.34;84.20
76102;SHT30;64830;46.910;6.354;2022-11-10T09:23:04;10.46;84.35
76102;SHT30;64830;46.910;6.354;2022-11-10T09:25:30;10.59;84.05
76102;SHT30;64830;46.910;6.354;2022-11-10T09:27:56;10.67;83.78
76102;SHT30;64830;46.910;6.354;2022-11-10T09:30:21;10.70;83.82
76102;SHT30;64830;46.910;6.354;2022-11-10T09:32:52;10.77;83.45
76102;SHT30;64830;46.910;6.354;2022-11-10T09:35:18;10.87;84.03
76102;SHT30;64830;46.910;6.354;2022-11-10T09:37:43;10.96;83.22
76102;SHT30;64830;46.910;6.354;2022-11-10T09:40:16;11.03;83.45
76102;SHT30;64830;46.910;6.354;2022-11-10T09:42:42;11.12;83.37
76102;SHT30;64830;46.910;6.354;2022-11-10T09:50:28;11.51;82.65
76102;SHT30;64830;46.910;6.354;2022-11-10T09:52:56;11.63;82.87
76102;SHT30;64830;46.910;6.354;2022-11-10T09:55:32;11.74;82.04
76102;SHT30;64830;46.910;6.354;2022-11-10T09:57:59;11.86;81.56
76102;SHT30;64830;46.910;6.354;2022-11-10T10:00:25;11.94;81.78
76102;SHT30;64830;46.910;6.354;2022-11-10T10:02:57;12.01;81.73
76102;SHT30;64830;46.910;6.354;2022-11-10T10:08:05;12.17;81.01
76102;SHT30;64830;46.910;6.354;2022-11-10T10:10:46;12.25;80.79
76102;SHT30;64830;46.910;6.354;2022-11-10T10:16:27;12.35;81.07
76102;SHT30;64830;46.910;6.354;2022-11-10T10:21:37;12.42;80.03
76102;SHT30;64830;46.910;6.354;2022-11-10T10:24:03;12.45;80.54
76102;SHT30;64830;46.910;6.354;2022-11-10T10:26:32;12.50;79.76
76102;SHT30;64830;46.910;6.354;2022-11-10T10:29:06;12.57;79.42
76102;SHT30;64830;46.910;6.354;2022-11-10T10:31:38;12.66;80.06
76102;SHT30;64830;46.910;6.354;2022-11-10T10:34:10;12.72;79.12
76102;SHT30;64830;46.910;6.354;2022-11-10T10:36:37;12.79;78.98
76102;SHT30;64830;46.910;6.354;2022-11-10T10:39:11;12.86;79.33
76102;SHT30;64830;46.910;6.354;2022-11-10T10:41:37;12.93;78.46
76102;SHT30;64830;46.910;6.354;2022-11-10T10:44:14;12.94;78.48
76102;SHT30;64830;46.910;6.354;2022-11-10T10:46:55;13.00;79.06
76102;SHT30;64830;46.910;6.354;2022-11-10T10:49:24;13.08;78.78
76102;SHT30;64830;46.910;6.354;2022-11-10T10:52:10;13.19;78.33
76102;SHT30;64830;46.910;6.354;2022-11-10T10:54:37;13.34;78.93
76102;SHT30;64830;46.910;6.354;2022-11-10T10:57:22;13.43;78.35
76102;SHT30;64830;46.910;6.354;2022-11-10T10:59:49;13.56;77.67
76102;SHT30;64830;46.910;6.354;2022-11-10T11:02:29;13.60;76.44
76102;SHT30;64830;46.910;6.354;2022-11-10T11:07:35;13.80;75.94
76102;SHT30;64830;46.910;6.354;2022-11-10T11:10:00;13.86;77.75
76102;SHT30;64830;46.910;6.354;2022-11-10T11:12:28;13.88;77.12
76102;SHT30;64830;46.910;6.354;2022-11-10T11:17:37;13.95;74.65
76102;SHT30;64830;46.910;6.354;2022-11-10T11:20:04;13.95;74.67
76102;SHT30;64830;46.910;6.354;2022-11-10T11:22:40;13.95;74.36
76102;SHT30;64830;46.910;6.354;2022-11-10T11:33:32;14.12;73.88
76102;SHT30;64830;46.910;6.354;2022-11-10T11:36:20;14.14;73.50
76102;SHT30;64830;46.910;6.354;2022-11-10T11:42:27;14.26;74.41
76102;SHT30;64830;46.910;6.354;2022-11-10T11:45:31;14.32;74.86
76102;SHT30;64830;46.910;6.354;2022-11-10T11:48:32;14.43;73.93
76102;SHT30;64830;46.910;6.354;2022-11-10T11:56:48;14.60;73.30
76102;SHT30;64830;46.910;6.354;2022-11-10T12:13:14;14.62;71.39
76102;SHT30;64830;46.910;6.354;2022-11-10T12:18:31;14.62;70.54
76102;SHT30;64830;46.910;6.354;2022-11-10T12:21:50;14.63;69.40
76102;SHT30;64830;46.910;6.354;2022-11-10T12:24:20;14.63;71.13
76102;SHT30;64830;46.910;6.354;2022-11-10T12:26:55;14.65;71.07
76102;SHT30;64830;46.910;6.354;2022-11-10T12:30:00;14.67;70.95
76102;SHT30;64830;46.910;6.354;2022-11-10T12:35:34;14.62;70.85
76102;SHT30;64830;46.910;6.354;2022-11-10T12:38:09;14.53;70.64
76102;SHT30;64830;46.910;6.354;2022-11-10T12:40:43;14.49;69.24
76102;SHT30;64830;46.910;6.354;2022-11-10T12:43:19;14.48;70.76
76102;SHT30;64830;46.910;6.354;2022-11-10T12:45:52;14.48;71.33
76102;SHT30;64830;46.910;6.354;2022-11-10T12:48:19;14.46;71.50
76102;SHT30;64830;46.910;6.354;2022-11-10T12:53:31;14.46;70.93
76102;SHT30;64830;46.910;6.354;2022-11-10T12:56:17;14.42;70.75
76102;SHT30;64830;46.910;6.354;2022-11-10T12:58:45;14.36;69.91
76102;SHT30;64830;46.910;6.354;2022-11-10T13:01:17;14.28;70.75
76102;SHT30;64830;46.910;6.354;2022-11-10T13:03:55;14.25;70.79
76102;SHT30;64830;46.910;6.354;2022-11-10T13:06:24;14.22;71.09
76102;SHT30;64830;46.910;6.354;2022-11-10T13:08:50;14.24;71.00
76102;SHT30;64830;46.910;6.354;2022-11-10T13:13:46;14.20;71.74
76102;SHT30;64830;46.910;6.354;2022-11-10T13:19:03;14.15;71.53
76102;SHT30;64830;46.910;6.354;2022-11-10T13:22:08;14.14;71.29
76102;SHT30;64830;46.910;6.354;2022-11-10T13:24:36;14.10;71.59
76102;SHT30;64830;46.910;6.354;2022-11-10T13:29:57;13.95;71.74
76102;SHT30;64830;46.910;6.354;2022-11-10T13:32:28;13.93;72.09
76102;SHT30;64830;46.910;6.354;2022-11-10T13:37:56;13.84;72.12
76102;SHT30;64830;46.910;6.354;2022-11-10T13:47:58;13.81;72.23
76102;SHT30;64830;46.910;6.354;2022-11-10T13:50:55;13.81;72.17
76102;SHT30;64830;46.910;6.354;2022-11-10T13:53:41;13.80;72.62
76102;SHT30;64830;46.910;6.354;2022-11-10T13:58:42;13.81;72.49
76102;SHT30;64830;46.910;6.354;2022-11-10T14:06:16;13.83;72.61
76102;SHT30;64830;46.910;6.354;2022-11-10T14:08:55;13.78;72.67
76102;SHT30;64830;46.910;6.354;2022-11-10T14:11:35;13.77;72.81
76102;SHT30;64830;46.910;6.354;2022-11-10T14:17:38;13.78;73.02
76102;SHT30;64830;46.910;6.354;2022-11-10T14:20:00;13.71;72.92
76102;SHT30;64830;46.910;6.354;2022-11-10T14:22:40;13.69;72.43
76102;SHT30;64830;46.910;6.354;2022-11-10T14:27:43;13.63;72.93
76102;SHT30;64830;46.910;6.354;2022-11-10T14:33:01;13.58;72.92
76102;SHT30;64830;46.910;6.354;2022-11-10T14:35:30;13.55;72.90
76102;SHT30;64830;46.910;6.354;2022-11-10T14:38:02;13.50;73.01
76102;SHT30;64830;46.910;6.354;2022-11-10T14:40:29;13.48;72.77
76102;SHT30;64830;46.910;6.354;2022-11-10T14:42:55;13.46;72.90
76102;SHT30;64830;46.910;6.354;2022-11-10T14:45:26;13.42;73.11
76102;SHT30;64830;46.910;6.354;2022-11-10T14:47:58;13.42;73.31
76102;SHT30;64830;46.910;6.354;2022-11-10T14:50:31;13.41;73.29
76102;SHT30;64830;46.910;6.354;2022-11-10T14:53:13;13.38;73.22
76102;SHT30;64830;46.910;6.354;2022-11-10T14:55:42;13.36;73.39
76102;SHT30;64830;46.910;6.354;2022-11-10T14:58:23;13.35;73.64
76102;SHT30;64830;46.910;6.354;2022-11-10T15:00:49;13.31;73.81
76102;SHT30;64830;46.910;6.354;2022-11-10T15:06:02;13.24;74.16
76102;SHT30;64830;46.910;6.354;2022-11-10T15:08:29;13.19;74.30
76102;SHT30;64830;46.910;6.354;2022-11-10T15:10:55;13.19;74.50
76102;SHT30;64830;46.910;6.354;2022-11-10T15:13:33;13.15;74.26
76102;SHT30;64830;46.910;6.354;2022-11-10T15:18:51;13.10;74.72
76102;SHT30;64830;46.910;6.354;2022-11-10T15:21:21;13.07;74.79
76102;SHT30;64830;46.910;6.354;2022-11-10T15:23:53;13.04;75.06
76102;SHT30;64830;46.910;6.354;2022-11-10T15:26:24;13.03;75.39
76102;SHT30;64830;46.910;6.354;2022-11-10T15:28:51;13.01;75.36
76102;SHT30;64830;46.910;6.354;2022-11-10T15:31:28;12.96;75.42
76102;SHT30;64830;46.910;6.354;2022-11-10T15:33:56;12.94;75.59
76102;SHT30;64830;46.910;6.354;2022-11-10T15:41:31;12.84;76.15
76102;SHT30;64830;46.910;6.354;2022-11-10T15:44:20;12.77;76.14
76102;SHT30;64830;46.910;6.354;2022-11-10T15:46:47;12.75;76.35
76102;SHT30;64830;46.910;6.354;2022-11-10T15:49:22;12.70;76.73
76102;SHT30;64830;46.910;6.354;2022-11-10T15:51:50;12.64;76.72
76102;SHT30;64830;46.910;6.354;2022-11-10T15:54:19;12.62;77.22
76102;SHT30;64830;46.910;6.354;2022-11-10T15:56:45;12.56;76.98
76102;SHT30;64830;46.910;6.354;2022-11-10T15:59:11;12.49;77.01
76102;SHT30;64830;46.910;6.354;2022-11-10T16:01:37;12.41;77.13
76102;SHT30;64830;46.910;6.354;2022-11-10T16:04:02;12.28;78.11
76102;SHT30;64830;46.910;6.354;2022-11-10T16:06:28;12.15;78.48
76102;SHT30;64830;46.910;6.354;2022-11-10T16:08:55;12.04;78.85
76102;SHT30;64830;46.910;6.354;2022-11-10T16:11:21;11.95;78.51
76102;SHT30;64830;46.910;6.354;2022-11-10T16:13:49;11.84;79.05
76102;SHT30;64830;46.910;6.354;2022-11-10T16:16:16;11.74;78.89
76102;SHT30;64830;46.910;6.354;2022-11-10T16:18:42;11.66;79.01
76102;SHT30;64830;46.910;6.354;2022-11-10T16:21:12;11.56;79.18
76102;SHT30;64830;46.910;6.354;2022-11-10T16:23:39;11.49;79.29
76102;SHT30;64830;46.910;6.354;2022-11-10T16:26:04;11.38;79.46
76102;SHT30;64830;46.910;6.354;2022-11-10T16:28:32;11.31;79.97
76102;SHT30;64830;46.910;6.354;2022-11-10T16:30:58;11.18;80.04
76102;SHT30;64830;46.910;6.354;2022-11-10T16:33:23;11.10;80.01
76102;SHT30;64830;46.910;6.354;2022-11-10T16:35:51;11.00;79.98
76102;SHT30;64830;46.910;6.354;2022-11-10T16:38:26;10.93;79.99
76102;SHT30;64830;46.910;6.354;2022-11-10T16:41:00;10.83;80.31
76102;SHT30;64830;46.910;6.354;2022-11-10T16:43:26;10.77;80.58
76102;SHT30;64830;46.910;6.354;2022-11-10T16:45:54;10.67;80.41
76102;SHT30;64830;46.910;6.354;2022-11-10T16:48:23;10.60;80.38
76102;SHT30;64830;46.910;6.354;2022-11-10T16:50:51;10.55;80.51
76102;SHT30;64830;46.910;6.354;2022-11-10T16:53:21;10.46;80.86
76102;SHT30;64830;46.910;6.354;2022-11-10T16:55:46;10.38;81.06
76102;SHT30;64830;46.910;6.354;2022-11-10T16:58:12;10.29;81.09
76102;SHT30;64830;46.910;6.354;2022-11-10T17:00:38;10.18;81.13
76102;SHT30;64830;46.910;6.354;2022-11-10T17:03:23;10.05;81.38
76102;SHT30;64830;46.910;6.354;2022-11-10T17:05:52;9.98;81.45
76102;SHT30;64830;46.910;6.354;2022-11-10T17:08:21;9.90;81.81
76102;SHT30;64830;46.910;6.354;2022-11-10T17:10:48;9.83;81.52
76102;SHT30;64830;46.910;6.354;2022-11-10T17:13:13;9.74;81.79
76102;SHT30;64830;46.910;6.354;2022-11-10T17:15:39;9.69;81.90
76102;SHT30;64830;46.910;6.354;2022-11-10T17:18:05;9.62;81.79
76102;SHT30;64830;46.910;6.354;2022-11-10T17:20:33;9.55;81.86
76102;SHT30;64830;46.910;6.354;2022-11-10T17:23:00;9.45;82.28
76102;SHT30;64830;46.910;6.354;2022-11-10T17:25:29;9.28;82.67
76102;SHT30;64830;46.910;6.354;2022-11-10T17:27:56;9.12;82.84
76102;SHT30;64830;46.910;6.354;2022-11-10T17:30:22;9.05;82.81